sensor_id;sensor_type;location;lat;lon;timestamp;temperature;humidity
12125;DHT22;6126;57.908;16.490;2023-07-22T00:00:52;14.40;69.20
12125;DHT22;6126;57.908;16.490;2023-07-22T00:03:18;14.20;69.00
12125;DHT22;6126;57.908;16.490;2023-07-22T00:05:44;14.10;69.10
12125;DHT22;6126;57.908;16.490;2023-07-22T00:08:10;14.20;69.20
12125;DHT22;6126;57.908;16.490;2023-07-22T00:10:41;14.30;69.40
12125;DHT22;6126;57.908;16.490;2023-07-22T00:13:08;14.30;69.40
12125;DHT22;6126;57.908;16.490;2023-07-22T00:15:33;14.10;69.20
12125;DHT22;6126;57.908;16.490;2023-07-22T00:18:00;14.10;69.30
12125;DHT22;6126;57.908;16.490;2023-07-22T00:20:26;14.10;69.30
12125;DHT22;6126;57.908;16.490;2023-07-22T00:22:52;14.20;69.50
12125;DHT22;6126;57.908;16.490;2023-07-22T00:25:18;14.30;69.60
12125;DHT22;6126;57.908;16.490;2023-07-22T00:27:44;14.20;69.60
12125;DHT22;6126;57.908;16.490;2023-07-22T00:30:10;14.10;69.50
12125;DHT22;6126;57.908;16.490;2023-07-22T00:32:36;14.10;70.40
12125;DHT22;6126;57.908;16.490;2023-07-22T00:35:04;13.90;69.40
12125;DHT22;6126;57.908;16.490;2023-07-22T00:37:35;14.10;69.70
12125;DHT22;6126;57.908;16.490;2023-07-22T00:40:01;14.10;69.80
12125;DHT22;6126;57.908;16.490;2023-07-22T00:42:31;14.20;70.00
12125;DHT22;6126;57.908;16.490;2023-07-22T00:44:57;14.10;69.90
12125;DHT22;6126;57.908;16.490;2023-07-22T00:47:23;14.20;70.10
12125;DHT22;6126;57.908;16.490;2023-07-22T00:49:49;14.30;70.30
12125;DHT22;6126;57.908;16.490;2023-07-22T00:52:16;14.10;70.10
12125;DHT22;6126;57.908;16.490;2023-07-22T00:54:43;14.00;70.10
12125;DHT22;6126;57.908;16.490;2023-07-22T00:57:09;14.00;70.20
12125;DHT22;6126;57.908;16.490;2023-07-22T00:59:38;14.00;70.30
12125;DHT22;6126;57.908;16.490;2023-07-22T01:02:06;13.80;70.10
12125;DHT22;6126;57.908;16.490;2023-07-22T01:04:33;13.90;70.30
12125;DHT22;6126;57.908;16.490;2023-07-22T01:07:01;13.80;70.20
12125;DHT22;6126;57.908;16.490;2023-07-22T01:09:39;13.90;70.40
12125;DHT22;6126;57.908;16.490;2023-07-22T01:12:07;13.60;70.20
12125;DHT22;6126;57.908;16.490;2023-07-22T01:14:38;14.10;70.80
12125;DHT22;6126;57.908;16.490;2023-07-22T01:17:08;13.70;70.40
12125;DHT22;6126;57.908;16.490;2023-07-22T01:19:35;13.60;70.40
12125;DHT22;6126;57.908;16.490;2023-07-22T01:22:05;13.70;70.50
12125;DHT22;6126;57.908;16.490;2023-07-22T01:24:33;13.90;70.90
12125;DHT22;6126;57.908;16.490;2023-07-22T01:27:00;13.50;70.50
12125;DHT22;6126;57.908;16.490;2023-07-22T01:29:26;13.70;70.80
12125;DHT22;6126;57.908;16.490;2023-07-22T01:31:53;13.70;70.90
12125;DHT22;6126;57.908;16.490;2023-07-22T01:34:21;13.80;71.10
12125;DHT22;6126;57.908;16.490;2023-07-22T01:36:50;13.40;70.80
12125;DHT22;6126;57.908;16.490;2023-07-22T01:39:16;13.60;71.10
12125;DHT22;6126;57.908;16.490;2023-07-22T01:41:44;13.60;71.20
12125;DHT22;6126;57.908;16.490;2023-07-22T01:44:10;13.30;71.10
12125;DHT22;6126;57.908;16.490;2023-07-22T01:46:38;13.30;71.20
12125;DHT22;6126;57.908;16.490;2023-07-22T01:49:06;13.40;71.40
12125;DHT22;6126;57.908;16.490;2023-07-22T01:51:36;13.40;71.30
12125;DHT22;6126;57.908;16.490;2023-07-22T01:54:04;13.30;71.40
12125;DHT22;6126;57.908;16.490;2023-07-22T01:56:30;13.40;71.60
12125;DHT22;6126;57.908;16.490;2023-07-22T01:58:56;13.30;71.60
12125;DHT22;6126;57.908;16.490;2023-07-22T02:01:22;13.20;71.70
12125;DHT22;6126;57.908;16.490;2023-07-22T02:03:48;13.20;71.90
12125;DHT22;6126;57.908;16.490;2023-07-22T02:06:14;13.30;72.10
12125;DHT22;6126;57.908;16.490;2023-07-22T02:08:39;13.20;72.10
12125;DHT22;6126;57.908;16.490;2023-07-22T02:11:06;13.10;72.00
12125;DHT22;6126;57.908;16.490;2023-07-22T02:13:34;13.20;72.20
12125;DHT22;6126;57.908;16.490;2023-07-22T02:16:01;13.20;72.20
12125;DHT22;6126;57.908;16.490;2023-07-22T02:18:28;12.90;72.00
12125;DHT22;6126;57.908;16.490;2023-07-22T02:20:55;13.20;72.40
12125;DHT22;6126;57.908;16.490;2023-07-22T02:23:22;13.10;72.50
12125;DHT22;6126;57.908;16.490;2023-07-22T02:25:53;13.00;72.40
12125;DHT22;6126;57.908;16.490;2023-07-22T02:28:20;13.10;72.60
12125;DHT22;6126;57.908;16.490;2023-07-22T02:30:51;13.00;72.50
12125;DHT22;6126;57.908;16.490;2023-07-22T02:33:18;12.90;72.50
12125;DHT22;6126;57.908;16.490;2023-07-22T02:35:44;13.10;72.80
12125;DHT22;6126;57.908;16.490;2023-07-22T02:38:11;13.10;72.90
12125;DHT22;6126;57.908;16.490;2023-07-22T02:40:37;12.90;72.70
12125;DHT22;6126;57.908;16.490;2023-07-22T02:43:03;13.20;73.00
12125;DHT22;6126;57.908;16.490;2023-07-22T02:45:29;13.00;72.80
12125;DHT22;6126;57.908;16.490;2023-07-22T02:47:55;13.10;73.00
12125;DHT22;6126;57.908;16.490;2023-07-22T02:50:21;12.90;72.50
12125;DHT22;6126;57.908;16.490;2023-07-22T02:52:47;12.60;72.70
12125;DHT22;6126;57.908;16.490;2023-07-22T02:55:17;12.20;72.90
12125;DHT22;6126;57.908;16.490;2023-07-22T02:57:47;12.20;73.60
12125;DHT22;6126;57.908;16.490;2023-07-22T03:00:15;11.60;73.80
12125;DHT22;6126;57.908;16.490;2023-07-22T03:02:49;11.50;74.40
12125;DHT22;6126;57.908;16.490;2023-07-22T03:05:18;11.40;74.80
12125;DHT22;6126;57.908;16.490;2023-07-22T03:07:44;11.30;75.20
12125;DHT22;6126;57.908;16.490;2023-07-22T03:10:10;11.00;75.30
12125;DHT22;6126;57.908;16.490;2023-07-22T03:12:36;11.10;75.70
12125;DHT22;6126;57.908;16.490;2023-07-22T03:15:03;11.20;75.90
12125;DHT22;6126;57.908;16.490;2023-07-22T03:17:31;10.90;75.70
12125;DHT22;6126;57.908;16.490;2023-07-22T03:19:56;11.20;75.90
12125;DHT22;6126;57.908;16.490;2023-07-22T03:22:22;11.50;75.80
12125;DHT22;6126;57.908;16.490;2023-07-22T03:24:48;11.60;75.60
12125;DHT22;6126;57.908;16.490;2023-07-22T03:27:14;11.60;75.20
12125;DHT22;6126;57.908;16.490;2023-07-22T03:29:42;12.10;75.40
12125;DHT22;6126;57.908;16.490;2023-07-22T03:32:08;12.20;75.20
12125;DHT22;6126;57.908;16.490;2023-07-22T03:34:35;12.30;75.00
12125;DHT22;6126;57.908;16.490;2023-07-22T03:37:01;12.30;74.70
12125;DHT22;6126;57.908;16.490;2023-07-22T03:39:26;12.50;74.70
12125;DHT22;6126;57.908;16.490;2023-07-22T03:41:52;12.50;74.30
12125;DHT22;6126;57.908;16.490;2023-07-22T03:44:18;12.80;75.30
12125;DHT22;6126;57.908;16.490;2023-07-22T03:46:44;12.60;74.90
12125;DHT22;6126;57.908;16.490;2023-07-22T03:49:10;12.80;74.20
12125;DHT22;6126;57.908;16.490;2023-07-22T03:51:36;12.70;74.00
12125;DHT22;6126;57.908;16.490;2023-07-22T03:54:02;13.00;74.30
12125;DHT22;6126;57.908;16.490;2023-07-22T03:56:28;13.10;74.30
12125;DHT22;6126;57.908;16.490;2023-07-22T03:58:53;13.10;74.40
12125;DHT22;6126;57.908;16.490;2023-07-22T04:01:19;13.10;74.40
12125;DHT22;6126;57.908;16.490;2023-07-22T04:03:45;13.00;74.20
12125;DHT22;6126;57.908;16.490;2023-07-22T04:06:11;13.10;74.50
12125;DHT22;6126;57.908;16.490;2023-07-22T04:08:37;12.90;74.30
12125;DHT22;6126;57.908;16.490;2023-07-22T04:11:03;13.00;74.40
12125;DHT22;6126;57.908;16.490;2023-07-22T04:13:29;13.20;75.40
12125;DHT22;6126;57.908;16.490;2023-07-22T04:15:55;13.10;74.40
12125;DHT22;6126;57.908;16.490;2023-07-22T04:18:21;13.20;74.50
12125;DHT22;6126;57.908;16.490;2023-07-22T04:20:48;13.30;74.50
12125;DHT22;6126;57.908;16.490;2023-07-22T04:23:20;13.30;74.30
12125;DHT22;6126;57.908;16.490;2023-07-22T04:25:46;13.30;74.20
12125;DHT22;6126;57.908;16.490;2023-07-22T04:28:12;13.40;74.00
12125;DHT22;6126;57.908;16.490;2023-07-22T04:30:39;13.60;73.90
12125;DHT22;6126;57.908;16.490;2023-07-22T04:33:06;13.90;74.00
12125;DHT22;6126;57.908;16.490;2023-07-22T04:35:33;14.40;73.50
12125;DHT22;6126;57.908;16.490;2023-07-22T04:37:59;14.80;72.10
12125;DHT22;6126;57.908;16.490;2023-07-22T04:40:25;15.30;71.70
12125;DHT22;6126;57.908;16.490;2023-07-22T04:42:51;16.10;71.40
12125;DHT22;6126;57.908;16.490;2023-07-22T04:45:18;16.90;69.20
12125;DHT22;6126;57.908;16.490;2023-07-22T04:47:44;17.90;67.40
12125;DHT22;6126;57.908;16.490;2023-07-22T04:50:13;18.30;66.30
12125;DHT22;6126;57.908;16.490;2023-07-22T04:52:41;18.40;66.00
12125;DHT22;6126;57.908;16.490;2023-07-22T04:55:12;18.40;65.60
12125;DHT22;6126;57.908;16.490;2023-07-22T04:57:40;17.90;65.50
12125;DHT22;6126;57.908;16.490;2023-07-22T05:00:08;18.10;65.60
12125;DHT22;6126;57.908;16.490;2023-07-22T05:02:40;18.00;65.90
12125;DHT22;6126;57.908;16.490;2023-07-22T05:05:06;17.80;66.50
12125;DHT22;6126;57.908;16.490;2023-07-22T05:07:33;17.40;67.00
12125;DHT22;6126;57.908;16.490;2023-07-22T05:09:58;17.10;67.50
12125;DHT22;6126;57.908;16.490;2023-07-22T05:12:24;17.10;68.30
12125;DHT22;6126;57.908;16.490;2023-07-22T05:14:50;17.00;69.00
12125;DHT22;6126;57.908;16.490;2023-07-22T05:17:16;16.50;69.10
12125;DHT22;6126;57.908;16.490;2023-07-22T05:19:43;16.30;69.50
12125;DHT22;6126;57.908;16.490;2023-07-22T05:22:09;16.50;70.00
12125;DHT22;6126;57.908;16.490;2023-07-22T05:24:35;16.60;70.10
12125;DHT22;6126;57.908;16.490;2023-07-22T05:27:00;16.40;70.00
12125;DHT22;6126;57.908;16.490;2023-07-22T05:29:26;16.50;70.10
12125;DHT22;6126;57.908;16.490;2023-07-22T05:31:52;16.40;70.10
12125;DHT22;6126;57.908;16.490;2023-07-22T05:34:18;16.40;70.00
12125;DHT22;6126;57.908;16.490;2023-07-22T05:36:44;16.50;70.00
12125;DHT22;6126;57.908;16.490;2023-07-22T05:39:10;16.80;70.10
12125;DHT22;6126;57.908;16.490;2023-07-22T05:41:36;16.80;70.00
12125;DHT22;6126;57.908;16.490;2023-07-22T05:44:02;16.70;69.80
12125;DHT22;6126;57.908;16.490;2023-07-22T05:46:28;16.70;69.70
12125;DHT22;6126;57.908;16.490;2023-07-22T05:48:54;16.80;69.70
12125;DHT22;6126;57.908;16.490;2023-07-22T05:51:20;16.90;69.70
12125;DHT22;6126;57.908;16.490;2023-07-22T05:53:46;17.00;69.80
12125;DHT22;6126;57.908;16.490;2023-07-22T05:56:11;16.80;69.80
12125;DHT22;6126;57.908;16.490;2023-07-22T05:58:37;17.00;70.20
12125;DHT22;6126;57.908;16.490;2023-07-22T06:01:03;16.50;69.70
12125;DHT22;6126;57.908;16.490;2023-07-22T06:03:29;16.70;70.00
12125;DHT22;6126;57.908;16.490;2023-07-22T06:05:55;16.90;70.10
12125;DHT22;6126;57.908;16.490;2023-07-22T06:08:21;16.60;69.90
12125;DHT22;6126;57.908;16.490;2023-07-22T06:10:46;16.60;69.90
12125;DHT22;6126;57.908;16.490;2023-07-22T06:13:12;16.50;69.90
12125;DHT22;6126;57.908;16.490;2023-07-22T06:15:38;16.90;70.20
12125;DHT22;6126;57.908;16.490;2023-07-22T06:18:04;16.70;70.00
12125;DHT22;6126;57.908;16.490;2023-07-22T06:20:34;16.60;69.90
12125;DHT22;6126;57.908;16.490;2023-07-22T06:23:04;16.80;70.20
12125;DHT22;6126;57.908;16.490;2023-07-22T06:25:30;16.80;70.20
12125;DHT22;6126;57.908;16.490;2023-07-22T06:27:56;17.10;70.40
12125;DHT22;6126;57.908;16.490;2023-07-22T06:30:22;16.90;69.90
12125;DHT22;6126;57.908;16.490;2023-07-22T06:32:48;17.20;70.00
12125;DHT22;6126;57.908;16.490;2023-07-22T06:35:14;17.20;69.80
12125;DHT22;6126;57.908;16.490;2023-07-22T06:37:40;17.20;69.60
12125;DHT22;6126;57.908;16.490;2023-07-22T06:40:06;17.40;69.60
12125;DHT22;6126;57.908;16.490;2023-07-22T06:42:33;17.30;69.30
12125;DHT22;6126;57.908;16.490;2023-07-22T06:44:59;17.70;69.70
12125;DHT22;6126;57.908;16.490;2023-07-22T06:47:25;17.40;69.20
12125;DHT22;6126;57.908;16.490;2023-07-22T06:49:51;17.30;69.10
12125;DHT22;6126;57.908;16.490;2023-07-22T06:52:17;17.60;69.60
12125;DHT22;6126;57.908;16.490;2023-07-22T06:54:43;17.40;69.30
12125;DHT22;6126;57.908;16.490;2023-07-22T06:57:09;17.30;69.20
12125;DHT22;6126;57.908;16.490;2023-07-22T06:59:35;17.50;69.40
12125;DHT22;6126;57.908;16.490;2023-07-22T07:02:01;17.70;69.50
12125;DHT22;6126;57.908;16.490;2023-07-22T07:04:28;17.50;69.10
12125;DHT22;6126;57.908;16.490;2023-07-22T07:06:54;17.70;69.20
12125;DHT22;6126;57.908;16.490;2023-07-22T07:09:20;17.70;69.10
12125;DHT22;6126;57.908;16.490;2023-07-22T07:11:46;17.60;69.00
12125;DHT22;6126;57.908;16.490;2023-07-22T07:14:12;17.90;69.30
12125;DHT22;6126;57.908;16.490;2023-07-22T07:16:38;17.70;68.90
12125;DHT22;6126;57.908;16.490;2023-07-22T07:19:04;17.90;68.90
12125;DHT22;6126;57.908;16.490;2023-07-22T07:21:30;17.70;68.50
12125;DHT22;6126;57.908;16.490;2023-07-22T07:23:56;18.10;68.80
12125;DHT22;6126;57.908;16.490;2023-07-22T07:26:22;18.10;68.70
12125;DHT22;6126;57.908;16.490;2023-07-22T07:28:48;18.00;68.50
12125;DHT22;6126;57.908;16.490;2023-07-22T07:31:18;18.00;68.40
12125;DHT22;6126;57.908;16.490;2023-07-22T07:33:44;17.90;68.10
12125;DHT22;6126;57.908;16.490;2023-07-22T07:36:10;18.10;68.00
12125;DHT22;6126;57.908;16.490;2023-07-22T07:38:36;18.20;67.90
12125;DHT22;6126;57.908;16.490;2023-07-22T07:41:05;18.10;67.60
12125;DHT22;6126;57.908;16.490;2023-07-22T07:43:37;18.10;67.60
12125;DHT22;6126;57.908;16.490;2023-07-22T07:46:23;18.20;67.70
12125;DHT22;6126;57.908;16.490;2023-07-22T07:48:56;18.10;67.50
12125;DHT22;6126;57.908;16.490;2023-07-22T07:51:25;18.20;67.60
12125;DHT22;6126;57.908;16.490;2023-07-22T07:53:55;18.00;67.40
12125;DHT22;6126;57.908;16.490;2023-07-22T07:56:22;18.00;67.40
12125;DHT22;6126;57.908;16.490;2023-07-22T07:58:49;18.00;67.40
12125;DHT22;6126;57.908;16.490;2023-07-22T08:01:18;18.00;67.40
12125;DHT22;6126;57.908;16.490;2023-07-22T08:03:44;18.10;67.30
12125;DHT22;6126;57.908;16.490;2023-07-22T08:06:11;18.20;67.30
12125;DHT22;6126;57.908;16.490;2023-07-22T08:08:37;18.20;67.20
12125;DHT22;6126;57.908;16.490;2023-07-22T08:11:07;18.20;67.00
12125;DHT22;6126;57.908;16.490;2023-07-22T08:13:34;18.30;66.90
12125;DHT22;6126;57.908;16.490;2023-07-22T08:16:07;18.30;66.70
12125;DHT22;6126;57.908;16.490;2023-07-22T08:18:35;18.30;66.50
12125;DHT22;6126;57.908;16.490;2023-07-22T08:21:03;18.50;66.40
12125;DHT22;6126;57.908;16.490;2023-07-22T08:23:30;18.50;66.30
12125;DHT22;6126;57.908;16.490;2023-07-22T08:25:56;18.70;66.30
12125;DHT22;6126;57.908;16.490;2023-07-22T08:28:22;18.40;65.80
12125;DHT22;6126;57.908;16.490;2023-07-22T08:30:48;18.40;65.30
12125;DHT22;6126;57.908;16.490;2023-07-22T08:33:15;19.00;65.40
12125;DHT22;6126;57.908;16.490;2023-07-22T08:35:42;19.20;64.80
12125;DHT22;6126;57.908;16.490;2023-07-22T08:38:08;19.40;64.50
12125;DHT22;6126;57.908;16.490;2023-07-22T08:40:38;19.50;64.30
12125;DHT22;6126;57.908;16.490;2023-07-22T08:43:08;19.50;64.20
12125;DHT22;6126;57.908;16.490;2023-07-22T08:45:36;19.40;64.20
12125;DHT22;6126;57.908;16.490;2023-07-22T08:48:06;19.30;64.20
12125;DHT22;6126;57.908;16.490;2023-07-22T08:50:46;19.30;64.50
12125;DHT22;6126;57.908;16.490;2023-07-22T08:53:14;19.30;64.60
12125;DHT22;6126;57.908;16.490;2023-07-22T08:55:41;19.30;64.50
12125;DHT22;6126;57.908;16.490;2023-07-22T08:58:11;19.20;64.30
12125;DHT22;6126;57.908;16.490;2023-07-22T09:00:39;19.10;64.00
12125;DHT22;6126;57.908;16.490;2023-07-22T09:03:06;19.40;64.10
12125;DHT22;6126;57.908;16.490;2023-07-22T09:05:33;19.40;63.90
12125;DHT22;6126;57.908;16.490;2023-07-22T09:08:07;19.50;63.90
12125;DHT22;6126;57.908;16.490;2023-07-22T09:10:34;19.50;63.60
12125;DHT22;6126;57.908;16.490;2023-07-22T09:13:01;19.70;63.50
12125;DHT22;6126;57.908;16.490;2023-07-22T09:15:28;19.90;63.10
12125;DHT22;6126;57.908;16.490;2023-07-22T09:17:54;20.10;62.70
12125;DHT22;6126;57.908;16.490;2023-07-22T09:20:21;20.30;62.30
12125;DHT22;6126;57.908;16.490;2023-07-22T09:22:50;20.40;62.00
12125;DHT22;6126;57.908;16.490;2023-07-22T09:25:24;20.50;61.80
12125;DHT22;6126;57.908;16.490;2023-07-22T09:27:58;20.60;61.80
12125;DHT22;6126;57.908;16.490;2023-07-22T09:30:29;20.70;61.30
12125;DHT22;6126;57.908;16.490;2023-07-22T09:33:03;20.80;61.10
12125;DHT22;6126;57.908;16.490;2023-07-22T09:35:42;20.80;60.90
12125;DHT22;6126;57.908;16.490;2023-07-22T09:38:10;20.70;61.00
12125;DHT22;6126;57.908;16.490;2023-07-22T09:40:40;20.60;61.10
12125;DHT22;6126;57.908;16.490;2023-07-22T09:43:09;20.50;61.20
12125;DHT22;6126;57.908;16.490;2023-07-22T09:45:37;20.70;61.90
12125;DHT22;6126;57.908;16.490;2023-07-22T09:48:03;20.90;60.50
12125;DHT22;6126;57.908;16.490;2023-07-22T09:50:31;21.00;60.10
12125;DHT22;6126;57.908;16.490;2023-07-22T09:52:58;20.90;60.80
12125;DHT22;6126;57.908;16.490;2023-07-22T09:55:30;20.80;60.20
12125;DHT22;6126;57.908;16.490;2023-07-22T09:58:04;20.60;60.50
12125;DHT22;6126;57.908;16.490;2023-07-22T10:00:36;20.40;60.80
12125;DHT22;6126;57.908;16.490;2023-07-22T10:03:03;20.20;61.00
12125;DHT22;6126;57.908;16.490;2023-07-22T10:05:37;20.10;61.10
12125;DHT22;6126;57.908;16.490;2023-07-22T10:08:06;20.00;61.20
12125;DHT22;6126;57.908;16.490;2023-07-22T10:10:34;20.00;61.30
12125;DHT22;6126;57.908;16.490;2023-07-22T10:13:03;19.90;61.30
12125;DHT22;6126;57.908;16.490;2023-07-22T10:15:33;19.90;61.30
12125;DHT22;6126;57.908;16.490;2023-07-22T10:18:01;19.80;61.30
12125;DHT22;6126;57.908;16.490;2023-07-22T10:20:29;19.70;61.40
12125;DHT22;6126;57.908;16.490;2023-07-22T10:22:55;19.60;61.40
12125;DHT22;6126;57.908;16.490;2023-07-22T10:25:22;19.60;61.60
12125;DHT22;6126;57.908;16.490;2023-07-22T10:27:50;19.50;61.60
12125;DHT22;6126;57.908;16.490;2023-07-22T10:30:18;19.40;61.70
12125;DHT22;6126;57.908;16.490;2023-07-22T10:32:48;19.40;61.80
12125;DHT22;6126;57.908;16.490;2023-07-22T10:35:22;19.30;61.90
12125;DHT22;6126;57.908;16.490;2023-07-22T10:37:49;19.20;62.10
12125;DHT22;6126;57.908;16.490;2023-07-22T10:40:29;19.10;62.20
12125;DHT22;6126;57.908;16.490;2023-07-22T10:43:05;19.10;62.30
12125;DHT22;6126;57.908;16.490;2023-07-22T10:45:33;19.10;62.40
12125;DHT22;6126;57.908;16.490;2023-07-22T10:48:09;19.10;62.40
12125;DHT22;6126;57.908;16.490;2023-07-22T10:50:44;19.10;62.30
12125;DHT22;6126;57.908;16.490;2023-07-22T11:11:55;19.60;61.60
12125;DHT22;6126;57.908;16.490;2023-07-22T11:14:25;19.20;61.40
12125;DHT22;6126;57.908;16.490;2023-07-22T11:16:52;19.50;62.10
12125;DHT22;6126;57.908;16.490;2023-07-22T11:19:21;19.40;62.20
12125;DHT22;6126;57.908;16.490;2023-07-22T11:21:50;19.30;62.40
12125;DHT22;6126;57.908;16.490;2023-07-22T11:24:17;19.20;62.30
12125;DHT22;6126;57.908;16.490;2023-07-22T11:26:45;19.40;62.40
12125;DHT22;6126;57.908;16.490;2023-07-22T11:29:12;19.60;62.20
12125;DHT22;6126;57.908;16.490;2023-07-22T11:31:49;19.80;62.10
12125;DHT22;6126;57.908;16.490;2023-07-22T11:34:19;19.90;61.40
12125;DHT22;6126;57.908;16.490;2023-07-22T11:36:47;20.10;61.10
12125;DHT22;6126;57.908;16.490;2023-07-22T11:39:15;20.20;60.90
12125;DHT22;6126;57.908;16.490;2023-07-22T11:41:47;20.40;60.70
12125;DHT22;6126;57.908;16.490;2023-07-22T11:44:18;20.60;60.30
12125;DHT22;6126;57.908;16.490;2023-07-22T11:46:55;20.80;60.00
12125;DHT22;6126;57.908;16.490;2023-07-22T11:52:11;20.90;59.50
12125;DHT22;6126;57.908;16.490;2023-07-22T11:54:42;20.90;59.60
12125;DHT22;6126;57.908;16.490;2023-07-22T11:59:48;20.80;59.70
12125;DHT22;6126;57.908;16.490;2023-07-22T12:02:20;20.70;59.70
12125;DHT22;6126;57.908;16.490;2023-07-22T12:04:56;20.80;59.60
12125;DHT22;6126;57.908;16.490;2023-07-22T12:09:58;20.90;59.30
12125;DHT22;6126;57.908;16.490;2023-07-22T12:12:36;20.80;59.20
12125;DHT22;6126;57.908;16.490;2023-07-22T12:15:19;20.80;59.10
12125;DHT22;6126;57.908;16.490;2023-07-22T12:17:55;20.70;59.00
12125;DHT22;6126;57.908;16.490;2023-07-22T12:20:28;20.60;58.80
12125;DHT22;6126;57.908;16.490;2023-07-22T12:22:56;20.60;58.80
12125;DHT22;6126;57.908;16.490;2023-07-22T12:25:23;20.50;58.70
12125;DHT22;6126;57.908;16.490;2023-07-22T12:27:49;20.50;58.80
12125;DHT22;6126;57.908;16.490;2023-07-22T12:30:16;20.40;58.70
12125;DHT22;6126;57.908;16.490;2023-07-22T12:32:42;20.40;58.60
12125;DHT22;6126;57.908;16.490;2023-07-22T12:35:08;20.50;58.60
12125;DHT22;6126;57.908;16.490;2023-07-22T12:37:35;20.50;58.40
12125;DHT22;6126;57.908;16.490;2023-07-22T12:40:01;20.60;58.30
12125;DHT22;6126;57.908;16.490;2023-07-22T12:42:27;20.70;58.20
12125;DHT22;6126;57.908;16.490;2023-07-22T12:44:53;20.60;58.20
12125;DHT22;6126;57.908;16.490;2023-07-22T12:47:18;20.50;58.20
12125;DHT22;6126;57.908;16.490;2023-07-22T12:49:44;20.40;58.30
12125;DHT22;6126;57.908;16.490;2023-07-22T12:52:10;20.30;58.30
12125;DHT22;6126;57.908;16.490;2023-07-22T12:54:38;20.20;58.40
12125;DHT22;6126;57.908;16.490;2023-07-22T12:57:04;20.10;58.50
12125;DHT22;6126;57.908;16.490;2023-07-22T12:59:31;20.00;58.60
12125;DHT22;6126;57.908;16.490;2023-07-22T13:01:57;20.00;58.90
12125;DHT22;6126;57.908;16.490;2023-07-22T13:04:24;19.90;59.10
12125;DHT22;6126;57.908;16.490;2023-07-22T13:06:50;19.80;59.30
12125;DHT22;6126;57.908;16.490;2023-07-22T13:09:19;19.70;59.50
12125;DHT22;6126;57.908;16.490;2023-07-22T13:11:46;19.60;60.20
12125;DHT22;6126;57.908;16.490;2023-07-22T13:14:12;19.60;59.70
12125;DHT22;6126;57.908;16.490;2023-07-22T13:16:38;19.60;59.80
12125;DHT22;6126;57.908;16.490;2023-07-22T13:19:03;19.50;59.70
12125;DHT22;6126;57.908;16.490;2023-07-22T13:21:30;19.50;59.80
12125;DHT22;6126;57.908;16.490;2023-07-22T13:23:55;19.40;59.80
12125;DHT22;6126;57.908;16.490;2023-07-22T13:26:22;19.10;59.80
12125;DHT22;6126;57.908;16.490;2023-07-22T13:28:47;18.90;59.80
12125;DHT22;6126;57.908;16.490;2023-07-22T13:31:13;19.20;60.30
12125;DHT22;6126;57.908;16.490;2023-07-22T13:33:39;19.20;60.50
12125;DHT22;6126;57.908;16.490;2023-07-22T13:36:06;19.00;60.60
12125;DHT22;6126;57.908;16.490;2023-07-22T13:38:32;19.00;61.00
12125;DHT22;6126;57.908;16.490;2023-07-22T13:40:58;19.00;61.40
12125;DHT22;6126;57.908;16.490;2023-07-22T13:43:24;18.80;61.70
12125;DHT22;6126;57.908;16.490;2023-07-22T13:45:50;18.60;61.80
12125;DHT22;6126;57.908;16.490;2023-07-22T13:48:16;18.90;62.40
12125;DHT22;6126;57.908;16.490;2023-07-22T13:50:42;18.60;62.30
12125;DHT22;6126;57.908;16.490;2023-07-22T13:53:08;18.60;62.50
12125;DHT22;6126;57.908;16.490;2023-07-22T13:55:34;18.70;62.80
12125;DHT22;6126;57.908;16.490;2023-07-22T13:57:59;18.40;62.70
12125;DHT22;6126;57.908;16.490;2023-07-22T14:00:25;18.50;63.10
12125;DHT22;6126;57.908;16.490;2023-07-22T14:02:51;18.60;63.40
12125;DHT22;6126;57.908;16.490;2023-07-22T14:05:17;18.50;63.60
12125;DHT22;6126;57.908;16.490;2023-07-22T14:07:43;18.70;64.00
12125;DHT22;6126;57.908;16.490;2023-07-22T14:10:09;18.40;64.00
12125;DHT22;6126;57.908;16.490;2023-07-22T14:12:35;18.10;64.20
12125;DHT22;6126;57.908;16.490;2023-07-22T14:15:01;18.20;64.80
12125;DHT22;6126;57.908;16.490;2023-07-22T14:17:30;18.00;65.00
12125;DHT22;6126;57.908;16.490;2023-07-22T14:19:58;17.70;65.20
12125;DHT22;6126;57.908;16.490;2023-07-22T14:22:25;17.70;65.60
12125;DHT22;6126;57.908;16.490;2023-07-22T14:24:51;17.40;66.10
12125;DHT22;6126;57.908;16.490;2023-07-22T14:27:16;17.10;66.30
12125;DHT22;6126;57.908;16.490;2023-07-22T14:29:42;17.20;66.80
12125;DHT22;6126;57.908;16.490;2023-07-22T14:32:08;17.00;66.70
12125;DHT22;6126;57.908;16.490;2023-07-22T14:34:34;17.10;67.20
12125;DHT22;6126;57.908;16.490;2023-07-22T14:37:00;16.90;67.20
12125;DHT22;6126;57.908;16.490;2023-07-22T14:39:26;16.90;67.40
12125;DHT22;6126;57.908;16.490;2023-07-22T14:41:52;16.90;67.80
12125;DHT22;6126;57.908;16.490;2023-07-22T14:44:18;16.70;67.90
12125;DHT22;6126;57.908;16.490;2023-07-22T14:46:45;16.90;68.30
12125;DHT22;6126;57.908;16.490;2023-07-22T14:49:11;16.80;68.60
12125;DHT22;6126;57.908;16.490;2023-07-22T14:51:37;16.90;68.90
12125;DHT22;6126;57.908;16.490;2023-07-22T14:54:03;16.70;68.90
12125;DHT22;6126;57.908;16.490;2023-07-22T14:56:29;16.50;69.00
12125;DHT22;6126;57.908;16.490;2023-07-22T14:58:55;16.50;69.30
12125;DHT22;6126;57.908;16.490;2023-07-22T15:01:21;16.60;69.60
12125;DHT22;6126;57.908;16.490;2023-07-22T15:03:47;16.70;70.00
12125;DHT22;6126;57.908;16.490;2023-07-22T15:06:13;16.30;69.80
12125;DHT22;6126;57.908;16.490;2023-07-22T15:08:39;16.70;70.40
12125;DHT22;6126;57.908;16.490;2023-07-22T15:11:05;16.80;70.50
12125;DHT22;6126;57.908;16.490;2023-07-22T15:13:33;16.50;70.00
12125;DHT22;6126;57.908;16.490;2023-07-22T15:15:59;16.80;70.10
12125;DHT22;6126;57.908;16.490;2023-07-22T15:18:25;17.10;70.40
12125;DHT22;6126;57.908;16.490;2023-07-22T15:20:51;17.00;70.30
12125;DHT22;6126;57.908;16.490;2023-07-22T15:23:18;17.30;70.40
12125;DHT22;6126;57.908;16.490;2023-07-22T15:25:44;17.30;70.20
12125;DHT22;6126;57.908;16.490;2023-07-22T15:28:10;17.50;70.30
12125;DHT22;6126;57.908;16.490;2023-07-22T15:30:36;17.70;70.30
12125;DHT22;6126;57.908;16.490;2023-07-22T15:33:02;17.50;71.00
12125;DHT22;6126;57.908;16.490;2023-07-22T15:35:28;17.60;70.20
12125;DHT22;6126;57.908;16.490;2023-07-22T15:37:54;17.70;70.40
12125;DHT22;6126;57.908;16.490;2023-07-22T15:40:20;17.60;70.40
12125;DHT22;6126;57.908;16.490;2023-07-22T15:42:46;17.50;70.50
12125;DHT22;6126;57.908;16.490;2023-07-22T15:45:12;17.60;70.80
12125;DHT22;6126;57.908;16.490;2023-07-22T15:47:38;17.70;71.10
12125;DHT22;6126;57.908;16.490;2023-07-22T15:50:04;17.70;71.30
12125;DHT22;6126;57.908;16.490;2023-07-22T15:52:30;17.60;71.30
12125;DHT22;6126;57.908;16.490;2023-07-22T15:54:56;17.40;71.50
12125;DHT22;6126;57.908;16.490;2023-07-22T15:57:22;17.60;71.90